Arispe, Iowa
Current Conditions -  °F | °C
As of 1:35 PM on Friday 28 Nov 2014 (Local Time) from KCSQ Reporting Station
Clear Clear  
Wind Chill: 38°   Ceiling: Unl
Heat Index: 45°   Visibility: 10mi
Dew Point: 34°   Wind: 14mph
Humidity: 66%   Direction: 190°S
Pressure: 29.78"   Gusts: NA
Location:  40.95°N, 94.22°W
Report Text: KCSQ 281935Z AUTO 19012KT 10SM CLR 07/01 A2978 RMK AO2
Loading
Personal Weather Stations






























Interactive Weather Map New forecast layout! Learn more

10-Day Weather Forecast

Advertisements
Track Severe Weather on mobile